Iles-de-la-Madeleine, Canada
Current Conditions -  °F | °C
As of 11:00 PM on Wednesday 22 Oct 2014 (Local Time) from CYGR Reporting Station
Few Clouds Few Clouds  
Wind Chill: 42°   Ceiling: Unl
Heat Index: 48°   Visibility: 15mi
Dew Point: 41°   Wind: 17mph
Humidity: 76%   Direction: 80°E
Pressure: 30.39"   Gusts: NA
Location:  47.42°N, 61.77°W
Report Text: CYGR 230200Z 08015KT 15SM FEW020 09/05 A3039 RMK SC2 LAST OBS/NEXT 230900 UTC SLP291
Loading
Personal Weather Stations






























Interactive Weather Map
Tropical Storm Tracking
New forecast layout! Learn more

10-Day Weather Forecast

Advertisements
Track Severe Weather on mobile